XBR weather

Brockville - Thousand Islands Regional Tackaberry Airport
Brockville, Ontario, Canada

Public forecast

Using degrees Celsius for public forecast. Weather courtesy of forecast.io.

Closest aviation weather report (METAR) to Brockville - Thousand Islands Regional Tackaberry Airport

Closest report is Wheeler Sack Army Air Field, 35.1 nm (65.0 km) S. Retrieved 2019/12/07 02:56 UTC (40 minutes ago):

KGTB 070256Z AUTO 00000KT 10SM OVC080 M08/M11 A3015 RMK AO2 SLP222 T10791108 52019

Closest aviation forecast (TAF) to Brockville - Thousand Islands Regional Tackaberry Airport

Closest forecast is Wheeler Sack Army Air Field, 35.1 nm (65.0 km) S. Retrieved 2019-12-07 01:34 UTC (2 hours ago):

TAF KGTB 070100Z 0701/0807 VRB06KT 9999 OVC015 QNH3005INS BECMG 0705/0706 VRB06KT 9999 BKN020 QNH3009INS BECMG 0719/0720 19006KT 9999 SCT020 QNH3029INS TXM03/0717Z TNM06/0723Z